sensor_id;sensor_type;location;lat;lon;timestamp;temperature;humidity
52016;DHT22;38032;53.326;6.472;2023-02-15T00:01:16;2.50;99.90
52016;DHT22;38032;53.326;6.472;2023-02-15T00:03:42;2.50;99.90
52016;DHT22;38032;53.326;6.472;2023-02-15T00:06:08;2.50;99.90
52016;DHT22;38032;53.326;6.472;2023-02-15T00:08:34;2.40;99.90
52016;DHT22;38032;53.326;6.472;2023-02-15T00:11:05;2.50;99.90
52016;DHT22;38032;53.326;6.472;2023-02-15T00:13:31;2.50;99.90
52016;DHT22;38032;53.326;6.472;2023-02-15T00:16:02;2.40;99.90
52016;DHT22;38032;53.326;6.472;2023-02-15T00:18:28;2.50;99.90
52016;DHT22;38032;53.326;6.472;2023-02-15T00:20:54;2.60;99.90
52016;DHT22;38032;53.326;6.472;2023-02-15T00:23:20;2.60;99.90
52016;DHT22;38032;53.326;6.472;2023-02-15T00:25:46;2.70;99.90
52016;DHT22;38032;53.326;6.472;2023-02-15T00:28:12;2.70;99.90
52016;DHT22;38032;53.326;6.472;2023-02-15T00:30:38;2.70;99.90
52016;DHT22;38032;53.326;6.472;2023-02-15T00:33:04;2.70;99.90
52016;DHT22;38032;53.326;6.472;2023-02-15T00:35:30;2.70;99.90
52016;DHT22;38032;53.326;6.472;2023-02-15T00:37:56;2.60;99.90
52016;DHT22;38032;53.326;6.472;2023-02-15T00:40:22;2.60;99.90
52016;DHT22;38032;53.326;6.472;2023-02-15T00:42:48;2.60;99.90
52016;DHT22;38032;53.326;6.472;2023-02-15T00:45:14;2.50;99.90
52016;DHT22;38032;53.326;6.472;2023-02-15T00:47:40;2.40;99.90
52016;DHT22;38032;53.326;6.472;2023-02-15T00:50:06;2.30;99.90
52016;DHT22;38032;53.326;6.472;2023-02-15T00:52:32;2.30;99.90
52016;DHT22;38032;53.326;6.472;2023-02-15T00:54:57;2.20;99.90
52016;DHT22;38032;53.326;6.472;2023-02-15T00:57:23;2.20;99.90
52016;DHT22;38032;53.326;6.472;2023-02-15T00:59:49;2.20;99.90
52016;DHT22;38032;53.326;6.472;2023-02-15T01:02:15;2.20;99.90
52016;DHT22;38032;53.326;6.472;2023-02-15T01:04:41;2.20;99.90
52016;DHT22;38032;53.326;6.472;2023-02-15T01:07:07;2.10;99.90
52016;DHT22;38032;53.326;6.472;2023-02-15T01:09:33;2.10;99.90
52016;DHT22;38032;53.326;6.472;2023-02-15T01:11:58;2.10;99.90
52016;DHT22;38032;53.326;6.472;2023-02-15T01:14:24;2.10;99.90
52016;DHT22;38032;53.326;6.472;2023-02-15T01:16:50;2.10;99.90
52016;DHT22;38032;53.326;6.472;2023-02-15T01:19:16;2.10;99.90
52016;DHT22;38032;53.326;6.472;2023-02-15T01:21:42;2.10;99.90
52016;DHT22;38032;53.326;6.472;2023-02-15T01:24:13;2.00;99.90
52016;DHT22;38032;53.326;6.472;2023-02-15T01:26:39;2.00;99.90
52016;DHT22;38032;53.326;6.472;2023-02-15T01:29:05;2.00;99.90
52016;DHT22;38032;53.326;6.472;2023-02-15T01:31:31;2.00;99.90
52016;DHT22;38032;53.326;6.472;2023-02-15T01:33:57;2.00;99.90
52016;DHT22;38032;53.326;6.472;2023-02-15T01:36:22;1.90;99.90
52016;DHT22;38032;53.326;6.472;2023-02-15T01:38:48;1.90;99.90
52016;DHT22;38032;53.326;6.472;2023-02-15T01:41:15;1.90;99.90
52016;DHT22;38032;53.326;6.472;2023-02-15T01:43:51;1.90;99.90
52016;DHT22;38032;53.326;6.472;2023-02-15T01:46:20;1.90;99.90
52016;DHT22;38032;53.326;6.472;2023-02-15T01:48:48;1.90;99.90
52016;DHT22;38032;53.326;6.472;2023-02-15T01:51:20;1.90;99.90
52016;DHT22;38032;53.326;6.472;2023-02-15T01:53:55;1.90;99.90
52016;DHT22;38032;53.326;6.472;2023-02-15T01:56:27;1.80;99.90
52016;DHT22;38032;53.326;6.472;2023-02-15T01:58:57;1.80;99.90
52016;DHT22;38032;53.326;6.472;2023-02-15T02:01:26;1.80;99.90
52016;DHT22;38032;53.326;6.472;2023-02-15T02:06:35;1.70;99.90
52016;DHT22;38032;53.326;6.472;2023-02-15T02:09:02;1.60;99.90
52016;DHT22;38032;53.326;6.472;2023-02-15T02:11:28;1.60;99.90
52016;DHT22;38032;53.326;6.472;2023-02-15T02:13:55;1.60;99.90
52016;DHT22;38032;53.326;6.472;2023-02-15T02:16:34;1.60;99.90
52016;DHT22;38032;53.326;6.472;2023-02-15T02:27:39;1.50;99.90
52016;DHT22;38032;53.326;6.472;2023-02-15T02:30:26;1.50;99.90
52016;DHT22;38032;53.326;6.472;2023-02-15T02:36:14;1.50;99.90
52016;DHT22;38032;53.326;6.472;2023-02-15T02:38:57;1.60;99.90
52016;DHT22;38032;53.326;6.472;2023-02-15T02:41:34;1.50;99.90
52016;DHT22;38032;53.326;6.472;2023-02-15T02:44:16;1.50;99.90
52016;DHT22;38032;53.326;6.472;2023-02-15T02:46:58;1.40;99.90
52016;DHT22;38032;53.326;6.472;2023-02-15T02:49:31;1.50;99.90
52016;DHT22;38032;53.326;6.472;2023-02-15T02:52:00;1.40;99.90
52016;DHT22;38032;53.326;6.472;2023-02-15T02:54:27;1.40;99.90
52016;DHT22;38032;53.326;6.472;2023-02-15T02:56:55;1.40;99.90
52016;DHT22;38032;53.326;6.472;2023-02-15T02:59:29;1.30;99.90
52016;DHT22;38032;53.326;6.472;2023-02-15T03:02:05;1.40;99.90
52016;DHT22;38032;53.326;6.472;2023-02-15T03:04:37;1.30;99.90
52016;DHT22;38032;53.326;6.472;2023-02-15T03:07:08;1.30;99.90
52016;DHT22;38032;53.326;6.472;2023-02-15T03:09:42;1.30;99.90
52016;DHT22;38032;53.326;6.472;2023-02-15T03:12:16;1.10;99.90
52016;DHT22;38032;53.326;6.472;2023-02-15T03:14:45;1.10;99.90
52016;DHT22;38032;53.326;6.472;2023-02-15T03:17:14;1.10;99.90
52016;DHT22;38032;53.326;6.472;2023-02-15T03:19:41;1.00;99.90
52016;DHT22;38032;53.326;6.472;2023-02-15T03:22:17;1.00;99.90
52016;DHT22;38032;53.326;6.472;2023-02-15T03:25:11;1.10;99.90
52016;DHT22;38032;53.326;6.472;2023-02-15T03:27:43;1.20;99.90
52016;DHT22;38032;53.326;6.472;2023-02-15T03:30:11;1.00;99.90
52016;DHT22;38032;53.326;6.472;2023-02-15T03:32:39;1.10;99.90
52016;DHT22;38032;53.326;6.472;2023-02-15T03:35:06;1.10;99.90
52016;DHT22;38032;53.326;6.472;2023-02-15T03:37:48;1.10;99.90
52016;DHT22;38032;53.326;6.472;2023-02-15T03:40:21;1.00;99.90
52016;DHT22;38032;53.326;6.472;2023-02-15T03:45:43;1.10;99.90
52016;DHT22;38032;53.326;6.472;2023-02-15T03:48:24;1.00;99.90
52016;DHT22;38032;53.326;6.472;2023-02-15T03:50:54;1.00;99.90
52016;DHT22;38032;53.326;6.472;2023-02-15T03:53:41;0.90;99.90
52016;DHT22;38032;53.326;6.472;2023-02-15T03:56:08;1.00;99.90
52016;DHT22;38032;53.326;6.472;2023-02-15T03:58:34;0.90;99.90
52016;DHT22;38032;53.326;6.472;2023-02-15T04:01:26;0.80;99.90
52016;DHT22;38032;53.326;6.472;2023-02-15T04:04:26;0.80;99.90
52016;DHT22;38032;53.326;6.472;2023-02-15T04:06:53;0.80;99.90
52016;DHT22;38032;53.326;6.472;2023-02-15T04:09:19;0.80;99.90
52016;DHT22;38032;53.326;6.472;2023-02-15T04:12:04;0.80;99.90
52016;DHT22;38032;53.326;6.472;2023-02-15T04:14:30;0.80;99.90
52016;DHT22;38032;53.326;6.472;2023-02-15T04:17:14;0.80;99.90
52016;DHT22;38032;53.326;6.472;2023-02-15T04:19:40;0.80;99.90
52016;DHT22;38032;53.326;6.472;2023-02-15T04:22:24;0.80;99.90
52016;DHT22;38032;53.326;6.472;2023-02-15T04:25:08;0.70;99.90
52016;DHT22;38032;53.326;6.472;2023-02-15T04:27:39;0.70;99.90
52016;DHT22;38032;53.326;6.472;2023-02-15T04:30:06;0.60;99.90
52016;DHT22;38032;53.326;6.472;2023-02-15T04:32:33;0.70;99.90
52016;DHT22;38032;53.326;6.472;2023-02-15T04:34:59;0.60;99.90
52016;DHT22;38032;53.326;6.472;2023-02-15T04:37:25;0.60;99.90
52016;DHT22;38032;53.326;6.472;2023-02-15T04:39:51;0.60;99.90
52016;DHT22;38032;53.326;6.472;2023-02-15T04:42:17;0.60;99.90
52016;DHT22;38032;53.326;6.472;2023-02-15T04:44:43;0.50;99.90
52016;DHT22;38032;53.326;6.472;2023-02-15T04:47:09;0.50;99.90
52016;DHT22;38032;53.326;6.472;2023-02-15T04:49:35;0.50;99.90
52016;DHT22;38032;53.326;6.472;2023-02-15T04:52:00;0.50;99.90
52016;DHT22;38032;53.326;6.472;2023-02-15T04:54:26;0.50;99.90
52016;DHT22;38032;53.326;6.472;2023-02-15T04:56:52;0.50;99.90
52016;DHT22;38032;53.326;6.472;2023-02-15T04:59:18;0.50;99.90
52016;DHT22;38032;53.326;6.472;2023-02-15T05:01:44;0.50;99.90
52016;DHT22;38032;53.326;6.472;2023-02-15T05:04:10;0.50;99.90
52016;DHT22;38032;53.326;6.472;2023-02-15T05:06:35;0.50;99.90
52016;DHT22;38032;53.326;6.472;2023-02-15T05:09:01;0.50;99.90
52016;DHT22;38032;53.326;6.472;2023-02-15T05:11:27;0.50;99.90
52016;DHT22;38032;53.326;6.472;2023-02-15T05:13:53;0.50;99.90
52016;DHT22;38032;53.326;6.472;2023-02-15T05:16:19;0.40;99.90
52016;DHT22;38032;53.326;6.472;2023-02-15T05:18:45;0.40;99.90
52016;DHT22;38032;53.326;6.472;2023-02-15T05:21:11;0.40;99.90
52016;DHT22;38032;53.326;6.472;2023-02-15T05:23:37;0.40;99.90
52016;DHT22;38032;53.326;6.472;2023-02-15T05:26:03;0.40;99.90
52016;DHT22;38032;53.326;6.472;2023-02-15T05:28:47;0.40;99.90
52016;DHT22;38032;53.326;6.472;2023-02-15T05:31:14;0.30;99.90
52016;DHT22;38032;53.326;6.472;2023-02-15T05:33:41;0.20;99.90
52016;DHT22;38032;53.326;6.472;2023-02-15T05:36:07;0.20;99.90
52016;DHT22;38032;53.326;6.472;2023-02-15T05:38:33;0.10;99.90
52016;DHT22;38032;53.326;6.472;2023-02-15T05:40:59;0.10;99.90
52016;DHT22;38032;53.326;6.472;2023-02-15T05:43:26;0.10;99.90
52016;DHT22;38032;53.326;6.472;2023-02-15T05:45:54;0.10;99.90
52016;DHT22;38032;53.326;6.472;2023-02-15T05:48:21;0.10;99.90
52016;DHT22;38032;53.326;6.472;2023-02-15T05:53:24;0.10;99.90
52016;DHT22;38032;53.326;6.472;2023-02-15T05:55:49;0.10;99.90
52016;DHT22;38032;53.326;6.472;2023-02-15T05:58:15;0.10;99.90
52016;DHT22;38032;53.326;6.472;2023-02-15T06:00:41;0.10;99.90
52016;DHT22;38032;53.326;6.472;2023-02-15T06:03:07;0.10;99.90
52016;DHT22;38032;53.326;6.472;2023-02-15T06:05:33;0.10;99.90
52016;DHT22;38032;53.326;6.472;2023-02-15T06:07:59;0.10;99.90
52016;DHT22;38032;53.326;6.472;2023-02-15T06:10:24;0.10;99.90
52016;DHT22;38032;53.326;6.472;2023-02-15T06:12:50;0.10;99.90
52016;DHT22;38032;53.326;6.472;2023-02-15T06:15:16;0.10;99.90
52016;DHT22;38032;53.326;6.472;2023-02-15T06:17:42;0.10;99.90
52016;DHT22;38032;53.326;6.472;2023-02-15T06:20:09;0.10;99.90
52016;DHT22;38032;53.326;6.472;2023-02-15T06:22:35;0.20;99.90
52016;DHT22;38032;53.326;6.472;2023-02-15T06:25:01;0.20;99.90
52016;DHT22;38032;53.326;6.472;2023-02-15T06:27:27;0.30;99.90
52016;DHT22;38032;53.326;6.472;2023-02-15T06:29:53;0.30;99.90
52016;DHT22;38032;53.326;6.472;2023-02-15T06:32:19;0.40;99.90
52016;DHT22;38032;53.326;6.472;2023-02-15T06:34:44;0.50;99.90
52016;DHT22;38032;53.326;6.472;2023-02-15T06:37:10;0.50;99.90
52016;DHT22;38032;53.326;6.472;2023-02-15T06:39:36;0.60;99.90
52016;DHT22;38032;53.326;6.472;2023-02-15T06:42:03;0.60;99.90
52016;DHT22;38032;53.326;6.472;2023-02-15T06:44:28;0.70;99.90
52016;DHT22;38032;53.326;6.472;2023-02-15T06:46:54;0.60;99.90
52016;DHT22;38032;53.326;6.472;2023-02-15T06:49:20;0.50;99.90
52016;DHT22;38032;53.326;6.472;2023-02-15T06:51:46;0.60;99.90
52016;DHT22;38032;53.326;6.472;2023-02-15T06:54:12;0.60;99.90
52016;DHT22;38032;53.326;6.472;2023-02-15T06:56:38;0.60;99.90
52016;DHT22;38032;53.326;6.472;2023-02-15T06:59:04;0.70;99.90
52016;DHT22;38032;53.326;6.472;2023-02-15T07:01:30;0.60;99.90
52016;DHT22;38032;53.326;6.472;2023-02-15T07:03:56;0.80;99.90
52016;DHT22;38032;53.326;6.472;2023-02-15T07:06:21;0.70;99.90
52016;DHT22;38032;53.326;6.472;2023-02-15T07:08:47;0.90;99.90
52016;DHT22;38032;53.326;6.472;2023-02-15T07:11:13;0.90;99.90
52016;DHT22;38032;53.326;6.472;2023-02-15T07:13:57;1.00;99.90
52016;DHT22;38032;53.326;6.472;2023-02-15T07:16:23;1.10;99.90
52016;DHT22;38032;53.326;6.472;2023-02-15T07:18:49;1.20;99.90
52016;DHT22;38032;53.326;6.472;2023-02-15T07:21:15;1.40;99.90
52016;DHT22;38032;53.326;6.472;2023-02-15T07:23:41;1.50;99.90
52016;DHT22;38032;53.326;6.472;2023-02-15T07:26:07;1.60;99.90
52016;DHT22;38032;53.326;6.472;2023-02-15T07:28:34;1.80;99.90
52016;DHT22;38032;53.326;6.472;2023-02-15T07:31:02;1.90;99.90
52016;DHT22;38032;53.326;6.472;2023-02-15T07:33:31;2.10;99.90
52016;DHT22;38032;53.326;6.472;2023-02-15T07:35:59;2.20;99.90
52016;DHT22;38032;53.326;6.472;2023-02-15T07:38:30;2.20;99.90
52016;DHT22;38032;53.326;6.472;2023-02-15T07:40:58;2.20;99.90
52016;DHT22;38032;53.326;6.472;2023-02-15T07:43:25;2.30;99.90
52016;DHT22;38032;53.326;6.472;2023-02-15T07:45:50;2.30;99.90
52016;DHT22;38032;53.326;6.472;2023-02-15T07:48:16;2.40;99.90
52016;DHT22;38032;53.326;6.472;2023-02-15T07:50:43;2.50;99.90
52016;DHT22;38032;53.326;6.472;2023-02-15T07:53:09;2.70;99.90
52016;DHT22;38032;53.326;6.472;2023-02-15T07:55:34;2.90;99.90
52016;DHT22;38032;53.326;6.472;2023-02-15T07:58:00;3.10;99.90
52016;DHT22;38032;53.326;6.472;2023-02-15T08:00:26;3.30;99.90
52016;DHT22;38032;53.326;6.472;2023-02-15T08:02:54;3.50;99.90
52016;DHT22;38032;53.326;6.472;2023-02-15T08:05:39;3.60;99.90
52016;DHT22;38032;53.326;6.472;2023-02-15T08:08:06;3.70;99.90
52016;DHT22;38032;53.326;6.472;2023-02-15T08:10:33;3.80;99.90
52016;DHT22;38032;53.326;6.472;2023-02-15T08:13:17;3.80;99.90
52016;DHT22;38032;53.326;6.472;2023-02-15T08:15:49;4.10;99.90
52016;DHT22;38032;53.326;6.472;2023-02-15T08:18:15;4.30;99.90
52016;DHT22;38032;53.326;6.472;2023-02-15T08:20:41;4.40;99.90
52016;DHT22;38032;53.326;6.472;2023-02-15T08:23:07;4.50;99.90
52016;DHT22;38032;53.326;6.472;2023-02-15T08:25:33;4.50;99.90
52016;DHT22;38032;53.326;6.472;2023-02-15T08:27:58;4.50;99.90
52016;DHT22;38032;53.326;6.472;2023-02-15T08:30:24;4.60;99.90
52016;DHT22;38032;53.326;6.472;2023-02-15T08:32:50;4.70;99.90
52016;DHT22;38032;53.326;6.472;2023-02-15T08:35:16;4.70;99.90
52016;DHT22;38032;53.326;6.472;2023-02-15T08:37:42;4.80;99.90
52016;DHT22;38032;53.326;6.472;2023-02-15T08:40:08;5.00;99.90
52016;DHT22;38032;53.326;6.472;2023-02-15T08:42:34;5.10;99.90
52016;DHT22;38032;53.326;6.472;2023-02-15T08:45:00;5.30;99.90
52016;DHT22;38032;53.326;6.472;2023-02-15T08:47:26;5.60;99.90
52016;DHT22;38032;53.326;6.472;2023-02-15T08:49:52;6.30;99.90
52016;DHT22;38032;53.326;6.472;2023-02-15T08:52:18;6.50;99.90
52016;DHT22;38032;53.326;6.472;2023-02-15T08:54:44;7.10;99.90
52016;DHT22;38032;53.326;6.472;2023-02-15T08:57:10;7.70;99.90
52016;DHT22;38032;53.326;6.472;2023-02-15T08:59:36;8.40;99.90
52016;DHT22;38032;53.326;6.472;2023-02-15T09:02:02;9.10;99.90
52016;DHT22;38032;53.326;6.472;2023-02-15T09:04:28;9.90;99.90
52016;DHT22;38032;53.326;6.472;2023-02-15T09:06:54;10.60;99.90
52016;DHT22;38032;53.326;6.472;2023-02-15T09:09:21;11.30;99.90
52016;DHT22;38032;53.326;6.472;2023-02-15T09:11:49;11.80;99.90
52016;DHT22;38032;53.326;6.472;2023-02-15T09:14:17;12.20;99.90
52016;DHT22;38032;53.326;6.472;2023-02-15T09:16:46;12.40;99.90
52016;DHT22;38032;53.326;6.472;2023-02-15T09:19:15;12.30;99.90
52016;DHT22;38032;53.326;6.472;2023-02-15T09:21:41;12.10;99.90
52016;DHT22;38032;53.326;6.472;2023-02-15T09:24:09;12.30;99.90
52016;DHT22;38032;53.326;6.472;2023-02-15T09:26:38;12.50;99.90
52016;DHT22;38032;53.326;6.472;2023-02-15T09:29:05;12.80;99.90
52016;DHT22;38032;53.326;6.472;2023-02-15T09:31:36;12.90;99.90
52016;DHT22;38032;53.326;6.472;2023-02-15T09:34:03;12.90;99.90
52016;DHT22;38032;53.326;6.472;2023-02-15T09:36:34;13.00;99.90
52016;DHT22;38032;53.326;6.472;2023-02-15T09:39:14;13.20;99.90
52016;DHT22;38032;53.326;6.472;2023-02-15T09:44:33;13.50;99.90
52016;DHT22;38032;53.326;6.472;2023-02-15T09:47:06;13.50;99.90
52016;DHT22;38032;53.326;6.472;2023-02-15T09:49:54;13.70;99.90
52016;DHT22;38032;53.326;6.472;2023-02-15T09:52:26;14.00;99.90
52016;DHT22;38032;53.326;6.472;2023-02-15T10:00:46;15.60;96.70
52016;DHT22;38032;53.326;6.472;2023-02-15T10:06:23;16.50;94.20
52016;DHT22;38032;53.326;6.472;2023-02-15T10:08:57;16.80;91.70
52016;DHT22;38032;53.326;6.472;2023-02-15T10:14:16;17.20;90.00
52016;DHT22;38032;53.326;6.472;2023-02-15T10:19:28;17.60;88.00
52016;DHT22;38032;53.326;6.472;2023-02-15T10:22:16;17.70;84.50
52016;DHT22;38032;53.326;6.472;2023-02-15T10:27:30;17.50;83.40
52016;DHT22;38032;53.326;6.472;2023-02-15T10:30:14;17.60;83.20
52016;DHT22;38032;53.326;6.472;2023-02-15T10:38:15;17.40;83.60
52016;DHT22;38032;53.326;6.472;2023-02-15T10:40:51;17.10;82.10
52016;DHT22;38032;53.326;6.472;2023-02-15T10:49:01;16.40;86.20
52016;DHT22;38032;53.326;6.472;2023-02-15T10:51:55;16.20;86.50
52016;DHT22;38032;53.326;6.472;2023-02-15T10:54:45;16.10;88.00
52016;DHT22;38032;53.326;6.472;2023-02-15T10:57:33;16.00;88.50
52016;DHT22;38032;53.326;6.472;2023-02-15T11:03:04;16.00;91.20
52016;DHT22;38032;53.326;6.472;2023-02-15T11:06:03;16.10;91.40
52016;DHT22;38032;53.326;6.472;2023-02-15T11:08:41;16.00;91.10
52016;DHT22;38032;53.326;6.472;2023-02-15T11:11:12;16.00;92.00
52016;DHT22;38032;53.326;6.472;2023-02-15T11:13:45;15.90;91.50
52016;DHT22;38032;53.326;6.472;2023-02-15T11:16:17;15.80;91.40
52016;DHT22;38032;53.326;6.472;2023-02-15T11:19:00;15.70;91.50
52016;DHT22;38032;53.326;6.472;2023-02-15T11:21:33;15.60;92.90
52016;DHT22;38032;53.326;6.472;2023-02-15T11:26:42;15.60;93.90
52016;DHT22;38032;53.326;6.472;2023-02-15T11:29:18;15.60;94.40
52016;DHT22;38032;53.326;6.472;2023-02-15T11:31:54;15.50;94.50
52016;DHT22;38032;53.326;6.472;2023-02-15T11:34:26;15.50;95.50
52016;DHT22;38032;53.326;6.472;2023-02-15T11:36:55;15.50;95.20
52016;DHT22;38032;53.326;6.472;2023-02-15T11:39:21;15.50;95.00
52016;DHT22;38032;53.326;6.472;2023-02-15T11:41:53;15.40;94.90
52016;DHT22;38032;53.326;6.472;2023-02-15T11:44:25;15.30;94.30
52016;DHT22;38032;53.326;6.472;2023-02-15T11:46:52;15.20;94.40
52016;DHT22;38032;53.326;6.472;2023-02-15T11:51:50;14.90;94.80
52016;DHT22;38032;53.326;6.472;2023-02-15T11:54:33;14.70;94.90
52016;DHT22;38032;53.326;6.472;2023-02-15T11:59:40;14.50;97.70
52016;DHT22;38032;53.326;6.472;2023-02-15T12:02:24;14.60;97.10
52016;DHT22;38032;53.326;6.472;2023-02-15T12:04:58;14.50;96.70
52016;DHT22;38032;53.326;6.472;2023-02-15T12:07:28;14.50;97.10
52016;DHT22;38032;53.326;6.472;2023-02-15T12:10:04;14.50;97.70
52016;DHT22;38032;53.326;6.472;2023-02-15T12:12:37;14.50;98.60
52016;DHT22;38032;53.326;6.472;2023-02-15T12:15:05;14.60;99.00
52016;DHT22;38032;53.326;6.472;2023-02-15T12:17:37;14.60;99.00
52016;DHT22;38032;53.326;6.472;2023-02-15T12:22:50;14.60;99.10
52016;DHT22;38032;53.326;6.472;2023-02-15T12:28:00;14.50;97.80
52016;DHT22;38032;53.326;6.472;2023-02-15T12:30:32;14.30;97.90
52016;DHT22;38032;53.326;6.472;2023-02-15T12:35:57;14.10;98.70
52016;DHT22;38032;53.326;6.472;2023-02-15T12:38:25;13.90;98.40
52016;DHT22;38032;53.326;6.472;2023-02-15T12:41:23;13.70;98.10
52016;DHT22;38032;53.326;6.472;2023-02-15T12:46:29;13.60;99.30
52016;DHT22;38032;53.326;6.472;2023-02-15T12:49:10;13.60;99.20
52016;DHT22;38032;53.326;6.472;2023-02-15T12:51:46;13.50;99.20
52016;DHT22;38032;53.326;6.472;2023-02-15T12:56:57;13.40;99.50
52016;DHT22;38032;53.326;6.472;2023-02-15T12:59:24;13.40;99.60
52016;DHT22;38032;53.326;6.472;2023-02-15T13:01:51;13.30;99.80
52016;DHT22;38032;53.326;6.472;2023-02-15T13:04:26;13.30;99.90
52016;DHT22;38032;53.326;6.472;2023-02-15T13:06:56;13.20;99.90
52016;DHT22;38032;53.326;6.472;2023-02-15T13:12:05;13.20;99.90
52016;DHT22;38032;53.326;6.472;2023-02-15T13:14:35;13.10;99.90
52016;DHT22;38032;53.326;6.472;2023-02-15T13:17:03;13.00;99.90
52016;DHT22;38032;53.326;6.472;2023-02-15T13:19:39;13.00;99.90
52016;DHT22;38032;53.326;6.472;2023-02-15T13:22:14;12.90;99.90
52016;DHT22;38032;53.326;6.472;2023-02-15T13:24:51;12.90;99.90
52016;DHT22;38032;53.326;6.472;2023-02-15T13:27:22;12.90;99.90
52016;DHT22;38032;53.326;6.472;2023-02-15T13:29:51;12.90;99.90
52016;DHT22;38032;53.326;6.472;2023-02-15T13:32:30;12.90;99.90
52016;DHT22;38032;53.326;6.472;2023-02-15T13:34:59;12.90;99.90
52016;DHT22;38032;53.326;6.472;2023-02-15T13:37:41;12.90;99.90
52016;DHT22;38032;53.326;6.472;2023-02-15T13:42:45;12.90;99.90
52016;DHT22;38032;53.326;6.472;2023-02-15T13:45:52;13.00;99.90
52016;DHT22;38032;53.326;6.472;2023-02-15T13:51:30;13.20;99.90
52016;DHT22;38032;53.326;6.472;2023-02-15T13:57:22;13.30;99.90
52016;DHT22;38032;53.326;6.472;2023-02-15T13:59:58;13.40;99.90
52016;DHT22;38032;53.326;6.472;2023-02-15T14:05:29;13.50;99.90
52016;DHT22;38032;53.326;6.472;2023-02-15T14:08:19;13.50;99.90
52016;DHT22;38032;53.326;6.472;2023-02-15T14:10:57;13.50;99.90
52016;DHT22;38032;53.326;6.472;2023-02-15T14:13:47;13.50;99.90
52016;DHT22;38032;53.326;6.472;2023-02-15T14:19:16;13.50;99.90
52016;DHT22;38032;53.326;6.472;2023-02-15T14:21:53;13.60;99.90
52016;DHT22;38032;53.326;6.472;2023-02-15T14:24:37;13.50;99.90
52016;DHT22;38032;53.326;6.472;2023-02-15T14:27:20;13.60;99.90
52016;DHT22;38032;53.326;6.472;2023-02-15T14:29:52;13.50;99.90
52016;DHT22;38032;53.326;6.472;2023-02-15T14:34:55;13.50;99.90
52016;DHT22;38032;53.326;6.472;2023-02-15T14:37:46;13.50;99.90
52016;DHT22;38032;53.326;6.472;2023-02-15T14:40:27;13.50;99.90
52016;DHT22;38032;53.326;6.472;2023-02-15T14:45:58;13.40;99.90
52016;DHT22;38032;53.326;6.472;2023-02-15T14:48:30;13.40;99.90
52016;DHT22;38032;53.326;6.472;2023-02-15T14:50:57;13.40;99.90
52016;DHT22;38032;53.326;6.472;2023-02-15T14:53:33;13.40;99.90
52016;DHT22;38032;53.326;6.472;2023-02-15T14:58:33;13.30;99.90
52016;DHT22;38032;53.326;6.472;2023-02-15T15:01:07;13.30;99.90
52016;DHT22;38032;53.326;6.472;2023-02-15T15:03:34;13.30;99.90
52016;DHT22;38032;53.326;6.472;2023-02-15T15:06:03;13.20;99.90
52016;DHT22;38032;53.326;6.472;2023-02-15T15:08:48;13.10;99.90
52016;DHT22;38032;53.326;6.472;2023-02-15T15:13:57;13.00;99.90
52016;DHT22;38032;53.326;6.472;2023-02-15T15:16:30;13.00;99.90
52016;DHT22;38032;53.326;6.472;2023-02-15T15:18:57;12.90;99.90
52016;DHT22;38032;53.326;6.472;2023-02-15T15:35:36;12.60;99.90
52016;DHT22;38032;53.326;6.472;2023-02-15T15:41:17;12.50;99.90
52016;DHT22;38032;53.326;6.472;2023-02-15T15:46:57;12.30;99.90
52016;DHT22;38032;53.326;6.472;2023-02-15T15:49:30;12.30;99.90
52016;DHT22;38032;53.326;6.472;2023-02-15T15:52:01;12.20;99.90
52016;DHT22;38032;53.326;6.472;2023-02-15T15:54:28;12.00;99.90
52016;DHT22;38032;53.326;6.472;2023-02-15T15:56:58;11.90;99.90
52016;DHT22;38032;53.326;6.472;2023-02-15T15:59:28;11.90;99.90
52016;DHT22;38032;53.326;6.472;2023-02-15T16:01:54;11.70;99.90
52016;DHT22;38032;53.326;6.472;2023-02-15T16:06:50;11.50;99.90
52016;DHT22;38032;53.326;6.472;2023-02-15T16:09:19;11.40;99.90
52016;DHT22;38032;53.326;6.472;2023-02-15T16:11:48;11.40;99.90
52016;DHT22;38032;53.326;6.472;2023-02-15T16:14:22;11.30;99.90
52016;DHT22;38032;53.326;6.472;2023-02-15T16:16:54;11.20;99.90
52016;DHT22;38032;53.326;6.472;2023-02-15T16:19:26;11.10;99.90
52016;DHT22;38032;53.326;6.472;2023-02-15T16:21:53;11.10;99.90
52016;DHT22;38032;53.326;6.472;2023-02-15T16:29:33;10.80;99.90
52016;DHT22;38032;53.326;6.472;2023-02-15T16:32:01;10.70;99.90
52016;DHT22;38032;53.326;6.472;2023-02-15T16:34:27;10.50;99.90
52016;DHT22;38032;53.326;6.472;2023-02-15T16:37:14;10.50;99.90
52016;DHT22;38032;53.326;6.472;2023-02-15T16:39:42;10.40;99.90
52016;DHT22;38032;53.326;6.472;2023-02-15T16:42:09;10.40;99.90
52016;DHT22;38032;53.326;6.472;2023-02-15T16:44:36;10.30;99.90
52016;DHT22;38032;53.326;6.472;2023-02-15T16:47:02;10.20;99.90
52016;DHT22;38032;53.326;6.472;2023-02-15T16:49:29;10.10;99.90
52016;DHT22;38032;53.326;6.472;2023-02-15T16:52:00;10.00;99.90
52016;DHT22;38032;53.326;6.472;2023-02-15T16:54:29;10.00;99.90
52016;DHT22;38032;53.326;6.472;2023-02-15T16:56:57;9.90;99.90
52016;DHT22;38032;53.326;6.472;2023-02-15T16:59:34;9.80;99.90
52016;DHT22;38032;53.326;6.472;2023-02-15T17:02:04;9.80;99.90
52016;DHT22;38032;53.326;6.472;2023-02-15T17:04:31;9.70;99.90
52016;DHT22;38032;53.326;6.472;2023-02-15T17:09:55;9.50;99.90
52016;DHT22;38032;53.326;6.472;2023-02-15T17:12:44;9.50;99.90
52016;DHT22;38032;53.326;6.472;2023-02-15T17:15:33;9.40;99.90
52016;DHT22;38032;53.326;6.472;2023-02-15T17:18:06;9.30;99.90
52016;DHT22;38032;53.326;6.472;2023-02-15T17:20:33;9.30;99.90
52016;DHT22;38032;53.326;6.472;2023-02-15T17:22:59;9.20;99.90
52016;DHT22;38032;53.326;6.472;2023-02-15T17:25:35;9.20;99.90
52016;DHT22;38032;53.326;6.472;2023-02-15T17:28:02;9.20;99.90
52016;DHT22;38032;53.326;6.472;2023-02-15T17:30:31;9.10;99.90
52016;DHT22;38032;53.326;6.472;2023-02-15T17:33:00;9.10;99.90
52016;DHT22;38032;53.326;6.472;2023-02-15T17:35:29;9.00;99.90
52016;DHT22;38032;53.326;6.472;2023-02-15T17:38:05;9.00;99.90
52016;DHT22;38032;53.326;6.472;2023-02-15T17:40:34;8.90;99.90
52016;DHT22;38032;53.326;6.472;2023-02-15T17:43:01;8.90;99.90
52016;DHT22;38032;53.326;6.472;2023-02-15T17:45:36;8.90;99.90
52016;DHT22;38032;53.326;6.472;2023-02-15T17:48:05;8.80;99.90
52016;DHT22;38032;53.326;6.472;2023-02-15T17:50:32;8.80;99.90
52016;DHT22;38032;53.326;6.472;2023-02-15T17:52:59;8.80;99.90
52016;DHT22;38032;53.326;6.472;2023-02-15T17:55:26;8.80;99.90
52016;DHT22;38032;53.326;6.472;2023-02-15T17:58:01;8.70;99.90
52016;DHT22;38032;53.326;6.472;2023-02-15T18:00:27;8.70;99.90
52016;DHT22;38032;53.326;6.472;2023-02-15T18:03:12;8.70;99.90
52016;DHT22;38032;53.326;6.472;2023-02-15T18:05:57;8.60;99.90
52016;DHT22;38032;53.326;6.472;2023-02-15T18:08:42;8.60;99.90
52016;DHT22;38032;53.326;6.472;2023-02-15T18:11:26;8.60;99.90
52016;DHT22;38032;53.326;6.472;2023-02-15T18:14:01;8.50;99.90
52016;DHT22;38032;53.326;6.472;2023-02-15T18:16:30;8.50;99.90